FNHU/NOV METAR and TAF weather

Enter ICAO airport designator
Station Type Date Time Source
FNHU METAR 2019/06/18 16:00 UTC NOAA

FNHU 181600Z 05004KT CAVOK 24/05 Q1024


Station Type Date Time Source
FNHU Decoded METAR 2019/06/18 16:00 UTC NOAA

Huambo Nova Lisboa , Angola (FNHU) 12-48S 015-45E 1701M
Jun 18, 2019 - 12:00 PM EDT / 2019.06.18 1600 UTC
Wind: from the NE (050 degrees) at 5 MPH (4 KT):0
Visibility: greater than 7 mile(s):0
Temperature: 75 F (24 C)
Dew Point: 41 F (5 C)
Relative Humidity: 29%
Pressure (altimeter): 30.24 in. Hg (1024 hPa)
ob: FNHU 181600Z 05004KT CAVOK 24/05 Q1024
cycle: 16

Station Type Date Time Source
FNHU TAF 2019/06/18 12:45 UTC NOAA

TAF FNHU 181045Z 1812/1824 09015KT CAVOK
BECMG 1819/1822 VRB03KT 8000 NSC

Example: see airport list